Salisbury Ocean City Wicomico Regional Airport
KSBY : now visible

Airfield :











YOU CAN JOIN US ON...

 
LOGIN :

Register | Disclaimer

   EN    FR    IT 

 









Legend :    VFR   Marginal VFR   IFR   Intensive IFR   Very Intensive IFR
Visi :
Ceiling :
>= 8 km
>= 3000ft
5 to 8 km
1000 to 3000 ft
1500m to 5 km
500 to 1000 ft
800 to 1500m
200 to 500 ft
< 800m
< 200 ft
Symbols :   Thunderstorms  Fog  Heavy snow  Heavy precipitations  Wind > 20 kt







- Airport Elevation : 52 ft
- IATA code : SBY


KSBY - Salisbury Ocean City Wicomico Regional

CURRENT METAR :
  • 211054Z 00000KT 10SM CLR 11/09 A3026 RMK AO2 SLP247 T01110094

EXPIRED METARs :
  • 210954Z 00000KT 10SM CLR 11/09 A3025 RMK AO2 SLP246 T01110094
  • 210854Z AUTO 00000KT 10SM CLR 12/10 A3025 RMK AO2 SLP245 T01170100 58002

TAF KSBY
Valid from the 21 at 12:00 until the 22 at 12:00 UTC


211120Z 2112/2212 22007KT P6SM SKC
FM212100 19007KT P6SM FEW080
FM220500 18003KT P6SM SCT080
No reported NOTAMs for that airfield.



MET'MAP, your aeronautical weather chart ! - Copyright ORBIFLY December 2007 - Disclaimer

ORBIFLY MET'MAP TEAM :

Programming & Development : Alexandra Zaïnal
Concept & Development : Baudouin d'Aumeries
Co-Development & Prog : Marc-Olivier Méhu
Technical & hardware support : Manuel Goepfert

Contact : metmap@orbifly.com




SOURCES & CREDITS :

   NOAA       Earth
Advisory